Time;durP1;ratioP1;P1;durP2;ratioP2;P2;SDS_P1;SDS_P2;PMS_P1;PMS_P2;Temp;Humidity;BMP_temperature;BMP_pressure;BME280_temperature;BME280_humidity;BME280_pressure;Samples;Min_cycle;Max_cycle;Signal;HPM_P1;HPM_P2
2023/12/02 00:00:32;;;;;;;14.32;6.45;;;0.80;99.90;;;;;;5093165;28;20035;-63
2023/12/02 00:02:58;;;;;;;19.80;8.32;;;0.90;99.90;;;;;;5093529;28;20029;-63
2023/12/02 00:05:23;;;;;;;19.42;7.22;;;0.90;99.90;;;;;;5092470;28;20037;-63
2023/12/02 00:07:49;;;;;;;17.60;7.00;;;0.90;99.90;;;;;;5093062;28;20031;-63
2023/12/02 00:10:15;;;;;;;22.85;7.72;;;0.80;99.90;;;;;;5093008;28;20021;-63
2023/12/02 00:12:40;;;;;;;18.30;7.45;;;0.80;99.90;;;;;;5093328;28;20025;-64
2023/12/02 00:15:07;;;;;;;18.08;7.38;;;0.80;99.90;;;;;;5093191;28;20086;-63
2023/12/02 00:17:33;;;;;;;15.32;6.03;;;0.80;99.90;;;;;;5093221;28;20016;-63
2023/12/02 00:19:59;;;;;;;13.02;6.35;;;0.80;99.90;;;;;;5093019;28;20120;-63
2023/12/02 00:22:24;;;;;;;18.02;7.65;;;0.80;99.90;;;;;;5093131;28;20020;-64
2023/12/02 00:24:50;;;;;;;15.93;6.43;;;0.80;99.90;;;;;;5092703;28;20467;-63
2023/12/02 00:27:17;;;;;;;15.23;6.63;;;0.80;99.90;;;;;;5092971;28;20029;-63
2023/12/02 00:29:43;;;;;;;17.95;6.40;;;0.70;99.80;;;;;;5092608;28;20494;-63
2023/12/02 00:32:09;;;;;;;20.45;8.20;;;0.70;99.70;;;;;;5092942;28;20021;-63
2023/12/02 00:34:34;;;;;;;18.63;7.00;;;0.70;99.80;;;;;;5092942;28;20044;-63
2023/12/02 00:37:00;;;;;;;15.18;6.22;;;0.70;99.80;;;;;;5092953;28;20028;-63
2023/12/02 00:39:27;;;;;;;18.92;8.20;;;0.60;99.70;;;;;;5092798;28;20426;-63
2023/12/02 00:41:53;;;;;;;23.00;7.53;;;0.70;99.90;;;;;;5092811;28;20021;-63
2023/12/02 00:44:19;;;;;;;16.27;7.63;;;0.70;99.90;;;;;;5092541;28;20035;-63
2023/12/02 00:46:45;;;;;;;19.38;8.55;;;0.60;99.90;;;;;;5092784;28;20031;-63
2023/12/02 00:49:11;;;;;;;15.63;6.88;;;0.60;99.90;;;;;;5092662;28;20107;-63
2023/12/02 00:51:37;;;;;;;20.80;8.20;;;0.70;99.90;;;;;;5092848;28;20081;-63
2023/12/02 00:54:02;;;;;;;17.80;7.68;;;0.70;99.90;;;;;;5092537;28;20039;-64
2023/12/02 00:56:28;;;;;;;19.30;8.18;;;0.70;99.90;;;;;;5092574;28;20040;-63
2023/12/02 00:58:54;;;;;;;19.15;7.88;;;0.70;99.90;;;;;;5092390;28;20037;-63
2023/12/02 01:01:19;;;;;;;19.20;7.00;;;0.70;99.90;;;;;;5092555;28;20028;-63
2023/12/02 01:03:45;;;;;;;15.68;7.32;;;0.70;99.90;;;;;;5092395;28;20111;-64
2023/12/02 01:06:11;;;;;;;13.70;6.88;;;0.70;99.90;;;;;;5092391;28;20021;-63
2023/12/02 01:08:37;;;;;;;16.30;6.80;;;0.70;99.90;;;;;;5092385;28;20032;-64
2023/12/02 01:11:02;;;;;;;17.48;6.70;;;0.70;99.90;;;;;;5092474;28;20099;-63
2023/12/02 01:13:28;;;;;;;16.48;6.55;;;0.70;99.90;;;;;;5091315;28;20044;-64
2023/12/02 01:15:54;;;;;;;16.40;7.43;;;0.70;99.90;;;;;;5092414;28;20111;-63
2023/12/02 01:18:19;;;;;;;17.23;7.18;;;0.70;99.90;;;;;;5092290;28;20060;-63
2023/12/02 01:20:45;;;;;;;18.00;8.02;;;0.70;99.90;;;;;;5091998;28;20088;-64
2023/12/02 01:23:10;;;;;;;17.45;7.20;;;0.80;99.90;;;;;;5092255;28;20111;-63
2023/12/02 01:25:36;;;;;;;17.92;6.82;;;0.80;99.90;;;;;;5091896;28;20049;-63
2023/12/02 01:28:02;;;;;;;17.90;8.15;;;0.70;99.90;;;;;;5092139;28;20421;-63
2023/12/02 01:30:27;;;;;;;18.35;7.13;;;0.70;99.90;;;;;;5091985;28;20080;-63
2023/12/02 01:32:53;;;;;;;14.05;6.30;;;0.60;99.90;;;;;;5092129;28;20028;-64
2023/12/02 01:35:19;;;;;;;19.48;7.38;;;0.60;99.90;;;;;;5092091;28;20029;-63
2023/12/02 01:37:44;;;;;;;17.48;7.32;;;0.50;99.90;;;;;;5092233;28;20360;-63
2023/12/02 01:40:12;;;;;;;17.52;7.35;;;0.50;99.90;;;;;;5092147;28;20245;-63
2023/12/02 01:42:38;;;;;;;19.92;6.68;;;0.50;99.90;;;;;;5092054;28;20063;-63
2023/12/02 01:45:04;;;;;;;17.17;7.53;;;0.50;99.90;;;;;;5092022;28;20041;-63
2023/12/02 01:47:30;;;;;;;16.52;7.28;;;0.50;99.90;;;;;;5092040;28;20124;-63
2023/12/02 01:49:58;;;;;;;18.80;7.35;;;0.50;99.90;;;;;;5092064;28;20025;-63
2023/12/02 01:52:24;;;;;;;22.48;7.78;;;0.50;99.90;;;;;;5092028;28;20255;-64
2023/12/02 01:54:50;;;;;;;19.17;7.55;;;0.60;99.90;;;;;;5092024;28;20032;-64
2023/12/02 01:57:16;;;;;;;19.67;6.70;;;0.60;99.90;;;;;;5091896;28;20032;-63
2023/12/02 01:59:48;;;;;;;14.57;6.95;;;0.60;99.90;;;;;;5091714;28;20043;-64
2023/12/02 02:02:14;;;;;;;16.42;6.72;;;0.60;99.90;;;;;;5091946;28;20025;-63
2023/12/02 02:04:40;;;;;;;17.48;6.22;;;0.60;99.90;;;;;;5091721;28;20036;-63
2023/12/02 02:07:05;;;;;;;18.25;6.97;;;0.60;99.90;;;;;;5091985;28;20032;-63
2023/12/02 02:09:34;;;;;;;16.70;6.10;;;0.60;99.90;;;;;;5091652;28;20029;-63
2023/12/02 02:12:00;;;;;;;18.75;6.32;;;0.50;99.90;;;;;;5091733;28;20025;-63
2023/12/02 02:14:26;;;;;;;13.65;5.97;;;0.50;99.90;;;;;;5091815;28;20029;-63
2023/12/02 02:16:52;;;;;;;14.02;6.18;;;0.50;99.90;;;;;;5091812;28;20020;-63
2023/12/02 02:19:18;;;;;;;17.00;6.13;;;0.50;99.90;;;;;;5091707;28;20483;-63
2023/12/02 02:21:44;;;;;;;17.42;6.43;;;0.50;99.90;;;;;;5091613;28;20024;-64
2023/12/02 02:24:09;;;;;;;21.05;6.65;;;0.40;99.90;;;;;;5091486;28;20032;-64
2023/12/02 02:26:35;;;;;;;16.98;7.22;;;0.40;99.90;;;;;;5090437;28;20109;-63
2023/12/02 02:29:01;;;;;;;17.77;6.88;;;0.40;99.90;;;;;;5091392;28;20033;-63
2023/12/02 02:31:26;;;;;;;17.88;7.90;;;0.30;99.90;;;;;;5091979;28;20226;-64
2023/12/02 02:33:52;;;;;;;20.48;7.10;;;0.30;99.90;;;;;;5095165;28;20021;-64
2023/12/02 02:36:18;;;;;;;15.65;6.90;;;0.30;99.90;;;;;;5095243;28;20036;-64
2023/12/02 02:38:44;;;;;;;16.38;6.35;;;0.30;99.90;;;;;;5095050;28;20055;-63
2023/12/02 02:41:09;;;;;;;15.77;6.25;;;0.20;99.90;;;;;;5095193;28;20029;-63
2023/12/02 02:43:35;;;;;;;15.93;5.57;;;0.20;99.90;;;;;;5095099;28;20021;-63
2023/12/02 02:46:01;;;;;;;13.43;6.15;;;0.20;99.90;;;;;;5094953;28;20029;-63
2023/12/02 02:48:27;;;;;;;14.43;6.65;;;0.10;99.90;;;;;;5094987;28;20032;-63
2023/12/02 02:50:52;;;;;;;16.15;6.65;;;0.20;99.90;;;;;;5094996;28;20028;-63
2023/12/02 02:53:18;;;;;;;15.75;6.72;;;0.20;99.90;;;;;;5094721;28;20021;-63
2023/12/02 02:55:45;;;;;;;13.75;6.53;;;0.20;99.90;;;;;;5094837;28;20398;-63
2023/12/02 02:58:11;;;;;;;15.40;5.38;;;0.20;99.90;;;;;;5094877;28;20044;-63
2023/12/02 03:00:36;;;;;;;13.73;5.70;;;0.20;99.90;;;;;;5094554;28;20025;-63
2023/12/02 03:03:03;;;;;;;13.65;5.70;;;0.20;99.90;;;;;;5094720;28;20040;-63
2023/12/02 03:05:28;;;;;;;15.77;6.80;;;0.20;99.90;;;;;;5094732;28;20024;-63
2023/12/02 03:07:54;;;;;;;18.58;6.88;;;0.20;99.90;;;;;;5094681;28;20025;-63
2023/12/02 03:10:21;;;;;;;16.25;5.93;;;0.20;99.90;;;;;;5094710;28;20040;-64
2023/12/02 03:12:46;;;;;;;16.55;6.57;;;0.20;99.90;;;;;;5094689;28;20024;-64
2023/12/02 03:15:12;;;;;;;13.88;5.78;;;0.20;99.90;;;;;;5094458;28;20028;-63
2023/12/02 03:17:38;;;;;;;16.33;5.57;;;0.20;99.90;;;;;;5094441;28;20032;-64
2023/12/02 03:20:06;;;;;;;16.80;6.57;;;0.20;99.90;;;;;;5094365;28;20036;-63
2023/12/02 03:22:31;;;;;;;13.85;6.05;;;0.20;99.90;;;;;;5094334;28;20092;-63
2023/12/02 03:24:57;;;;;;;12.15;5.47;;;0.20;99.90;;;;;;5094107;28;20052;-63
2023/12/02 03:27:22;;;;;;;13.57;6.50;;;0.30;99.90;;;;;;5094354;28;20032;-63
2023/12/02 03:29:48;;;;;;;14.60;5.88;;;0.30;99.90;;;;;;5094057;28;20029;-63
2023/12/02 03:32:14;;;;;;;14.95;6.57;;;0.30;99.90;;;;;;5094208;28;20012;-64
2023/12/02 03:34:39;;;;;;;17.63;5.93;;;0.40;99.90;;;;;;5094208;28;20444;-63
2023/12/02 03:37:07;;;;;;;14.48;5.25;;;0.40;99.90;;;;;;5094089;28;20088;-64
2023/12/02 03:39:32;;;;;;;13.73;6.32;;;0.40;99.90;;;;;;5094182;28;20025;-63
2023/12/02 03:41:58;;;;;;;12.48;5.32;;;0.40;99.90;;;;;;5094113;28;20028;-63
2023/12/02 03:44:24;;;;;;;16.27;6.28;;;0.40;99.90;;;;;;5093933;28;20467;-64
2023/12/02 03:46:49;;;;;;;15.18;6.72;;;0.40;99.90;;;;;;5093989;28;20024;-63
2023/12/02 03:49:15;;;;;;;16.75;5.95;;;0.40;99.90;;;;;;5093894;28;20104;-63
2023/12/02 03:51:40;;;;;;;14.90;6.70;;;0.40;99.90;;;;;;5093823;28;20032;-63
2023/12/02 03:54:06;;;;;;;18.52;6.63;;;0.40;99.90;;;;;;5093752;28;20036;-63
2023/12/02 03:56:32;;;;;;;11.63;4.95;;;0.50;99.90;;;;;;5092828;28;20035;-63
2023/12/02 03:58:57;;;;;;;14.73;5.97;;;0.50;99.90;;;;;;5093549;28;20054;-63
2023/12/02 04:01:23;;;;;;;16.40;5.70;;;0.50;99.90;;;;;;5093695;28;20052;-63
2023/12/02 04:03:48;;;;;;;17.75;6.45;;;0.50;99.90;;;;;;5093508;28;20314;-63
2023/12/02 04:06:14;;;;;;;15.25;6.47;;;0.50;99.90;;;;;;5093400;28;20021;-64
2023/12/02 04:08:40;;;;;;;16.65;6.07;;;0.50;99.90;;;;;;5093482;28;20502;-63
2023/12/02 04:11:06;;;;;;;15.38;5.82;;;0.50;99.90;;;;;;5093527;28;20024;-63
2023/12/02 04:13:32;;;;;;;16.33;6.78;;;0.50;99.90;;;;;;5093483;28;20024;-63
2023/12/02 04:15:58;;;;;;;17.30;5.88;;;0.60;99.90;;;;;;5093282;28;20032;-63
2023/12/02 04:18:23;;;;;;;13.93;6.28;;;0.50;99.90;;;;;;5093302;28;20025;-64
2023/12/02 04:20:49;;;;;;;20.45;6.40;;;0.50;99.90;;;;;;5093020;28;20036;-63
2023/12/02 04:23:15;;;;;;;14.57;6.28;;;0.50;99.90;;;;;;5093094;28;20055;-64
2023/12/02 04:25:41;;;;;;;14.38;6.25;;;0.50;99.90;;;;;;5092936;28;20075;-63
2023/12/02 04:28:07;;;;;;;15.43;6.30;;;0.50;99.90;;;;;;5093158;28;20506;-63
2023/12/02 04:30:34;;;;;;;16.70;6.97;;;0.50;99.90;;;;;;5092930;28;20024;-63
2023/12/02 04:32:59;;;;;;;16.60;5.95;;;0.50;99.90;;;;;;5093041;28;20020;-63
2023/12/02 04:35:25;;;;;;;12.32;4.97;;;0.50;99.90;;;;;;5092943;28;20108;-63
2023/12/02 04:37:51;;;;;;;15.85;5.53;;;0.50;99.90;;;;;;5092960;28;20029;-63
2023/12/02 04:40:17;;;;;;;11.73;5.65;;;0.50;99.90;;;;;;5092920;28;20044;-63
2023/12/02 04:42:42;;;;;;;21.05;6.63;;;0.50;99.90;;;;;;5092907;28;20016;-64
2023/12/02 04:45:09;;;;;;;16.20;6.43;;;0.50;99.90;;;;;;5092823;28;20470;-63
2023/12/02 04:47:38;;;;;;;15.98;6.70;;;0.50;99.90;;;;;;5092792;28;20390;-63
2023/12/02 04:50:05;;;;;;;21.73;6.78;;;0.50;99.90;;;;;;5092683;28;20025;-63
2023/12/02 04:52:32;;;;;;;15.10;6.38;;;0.50;99.90;;;;;;5092690;28;20031;-63
2023/12/02 04:54:58;;;;;;;14.15;6.00;;;0.50;99.90;;;;;;5092256;28;20060;-63
2023/12/02 04:57:24;;;;;;;13.45;4.90;;;0.50;99.90;;;;;;5092654;28;20059;-63
2023/12/02 04:59:50;;;;;;;14.73;6.90;;;0.60;99.90;;;;;;5092500;28;20035;-63
2023/12/02 05:02:18;;;;;;;17.42;6.30;;;0.50;99.90;;;;;;5092636;28;20028;-64
2023/12/02 05:04:44;;;;;;;16.95;6.88;;;0.50;99.90;;;;;;5092387;28;20092;-63
2023/12/02 05:07:10;;;;;;;13.23;5.13;;;0.50;99.90;;;;;;5092504;28;20028;-64
2023/12/02 05:09:37;;;;;;;17.95;7.25;;;0.50;99.90;;;;;;5092616;28;20033;-63
2023/12/02 05:12:03;;;;;;;14.43;6.22;;;0.50;99.90;;;;;;5092539;28;20032;-63
2023/12/02 05:14:28;;;;;;;14.52;6.13;;;0.50;99.90;;;;;;5092470;28;20037;-64
2023/12/02 05:16:54;;;;;;;17.15;6.15;;;0.50;99.90;;;;;;5092529;28;20032;-63
2023/12/02 05:19:19;;;;;;;13.80;6.25;;;0.50;99.90;;;;;;5092305;28;20029;-64
2023/12/02 05:21:45;;;;;;;13.88;5.70;;;0.50;99.90;;;;;;5091525;28;20031;-63
2023/12/02 05:24:10;;;;;;;12.05;5.28;;;0.50;99.90;;;;;;5092235;28;20429;-63
2023/12/02 05:26:36;;;;;;;14.73;6.82;;;0.50;99.90;;;;;;5092244;28;20060;-63
2023/12/02 05:29:03;;;;;;;15.38;6.78;;;0.50;99.90;;;;;;5092135;28;20024;-63
2023/12/02 05:31:28;;;;;;;20.95;6.82;;;0.50;99.90;;;;;;5092307;28;20028;-63
2023/12/02 05:33:55;;;;;;;12.05;5.82;;;0.50;99.90;;;;;;5092146;28;20025;-63
2023/12/02 05:36:20;;;;;;;17.20;6.28;;;0.50;99.90;;;;;;5092172;28;20479;-64
2023/12/02 05:38:46;;;;;;;16.25;6.18;;;0.50;99.90;;;;;;5092216;28;20075;-63
2023/12/02 05:41:12;;;;;;;21.05;6.28;;;0.50;99.90;;;;;;5092276;28;20089;-63
2023/12/02 05:43:38;;;;;;;18.50;7.25;;;0.50;99.90;;;;;;5092167;28;20017;-63
2023/12/02 05:46:04;;;;;;;14.70;5.68;;;0.40;99.90;;;;;;5092045;28;20066;-63
2023/12/02 05:48:30;;;;;;;16.80;6.60;;;0.40;99.90;;;;;;5092087;28;20021;-63
2023/12/02 05:50:57;;;;;;;17.33;6.45;;;0.30;99.90;;;;;;5092121;28;20471;-64
2023/12/02 05:53:23;;;;;;;22.23;6.72;;;0.30;99.90;;;;;;5092107;28;20080;-63
2023/12/02 05:55:48;;;;;;;14.25;6.25;;;0.20;99.90;;;;;;5092107;28;20024;-63
2023/12/02 05:58:14;;;;;;;13.75;6.10;;;0.10;99.90;;;;;;5092015;28;20036;-63
2023/12/02 06:00:39;;;;;;;17.48;7.15;;;0.10;99.90;;;;;;5091788;28;20044;-64
2023/12/02 06:03:05;;;;;;;15.73;6.55;;;-0.10;99.90;;;;;;5091932;28;20033;-63
2023/12/02 06:05:30;;;;;;;17.42;6.57;;;-0.10;99.90;;;;;;5091945;28;20040;-64
2023/12/02 06:07:56;;;;;;;16.63;5.82;;;-0.20;99.90;;;;;;5094681;28;20063;-64
2023/12/02 06:10:22;;;;;;;15.10;6.13;;;-0.20;99.90;;;;;;5095812;28;20029;-63
2023/12/02 06:12:48;;;;;;;18.50;6.03;;;-0.20;99.90;;;;;;5095777;28;20222;-63
2023/12/02 06:15:14;;;;;;;15.50;5.03;;;-0.20;99.90;;;;;;5095700;28;20052;-63
2023/12/02 06:17:39;;;;;;;14.95;5.65;;;-0.20;99.90;;;;;;5095601;28;20024;-63
2023/12/02 06:20:06;;;;;;;15.73;5.95;;;-0.20;99.90;;;;;;5095464;28;20040;-64
2023/12/02 06:22:35;;;;;;;12.02;6.32;;;-0.20;99.90;;;;;;5095506;28;20059;-63
2023/12/02 06:25:01;;;;;;;6.45;3.58;;;-0.30;99.90;;;;;;5095136;28;20060;-63
2023/12/02 06:27:27;;;;;;;16.55;6.03;;;-0.40;99.90;;;;;;5095415;28;20025;-63
2023/12/02 06:29:52;;;;;;;18.60;6.32;;;-0.40;99.90;;;;;;5095049;28;20039;-63
2023/12/02 06:32:18;;;;;;;18.20;6.88;;;-0.40;99.90;;;;;;5095286;28;20025;-63
2023/12/02 06:34:44;;;;;;;14.50;5.10;;;-0.40;99.90;;;;;;5095259;28;20017;-63
2023/12/02 06:37:10;;;;;;;15.55;6.10;;;-0.40;99.90;;;;;;5095337;28;20032;-63
2023/12/02 06:39:35;;;;;;;17.13;6.55;;;-0.40;99.90;;;;;;5095216;28;20032;-63
2023/12/02 06:42:01;;;;;;;17.80;7.20;;;-0.40;99.90;;;;;;5095223;28;20032;-63
2023/12/02 06:44:26;;;;;;;13.73;5.72;;;-0.40;99.90;;;;;;5094996;28;20032;-64
2023/12/02 06:46:52;;;;;;;17.80;6.90;;;-0.30;99.90;;;;;;5094927;28;20036;-64
2023/12/02 06:49:18;;;;;;;14.65;6.43;;;-0.40;99.90;;;;;;5094911;28;20041;-64
2023/12/02 06:51:44;;;;;;;16.33;6.60;;;-0.40;99.90;;;;;;5094973;28;20031;-64
2023/12/02 06:54:10;;;;;;;15.75;6.20;;;-0.40;99.90;;;;;;5094965;28;20020;-64
2023/12/02 06:56:36;;;;;;;13.57;6.32;;;-0.50;99.90;;;;;;5094974;28;20028;-64
2023/12/02 06:59:02;;;;;;;14.77;5.47;;;-0.40;99.90;;;;;;5094738;28;20087;-64
2023/12/02 07:01:30;;;;;;;16.08;5.28;;;-0.40;99.90;;;;;;5094878;28;20016;-64
2023/12/02 07:03:57;;;;;;;18.83;6.50;;;-0.40;99.90;;;;;;5094730;28;20029;-64
2023/12/02 07:06:24;;;;;;;20.83;6.78;;;-0.40;99.90;;;;;;5094795;28;20044;-64
2023/12/02 07:08:51;;;;;;;16.27;6.15;;;-0.40;99.90;;;;;;5094704;28;20043;-64
2023/12/02 07:11:17;;;;;;;16.25;6.32;;;-0.30;99.90;;;;;;5094729;28;20017;-64
2023/12/02 07:13:43;;;;;;;19.08;6.55;;;-0.30;99.90;;;;;;5094647;28;20031;-64
2023/12/02 07:16:09;;;;;;;16.40;6.50;;;-0.30;99.90;;;;;;5094606;28;20043;-64
2023/12/02 07:18:35;;;;;;;13.25;5.45;;;-0.20;99.90;;;;;;5094203;28;20029;-64
2023/12/02 07:21:01;;;;;;;17.15;6.57;;;-0.20;99.90;;;;;;5094438;28;20040;-64
2023/12/02 07:23:28;;;;;;;14.43;6.22;;;-0.20;99.90;;;;;;5094441;28;20111;-64
2023/12/02 07:25:55;;;;;;;10.05;5.22;;;-0.20;99.90;;;;;;5094131;28;20053;-63
2023/12/02 07:28:21;;;;;;;15.90;6.55;;;-0.20;99.90;;;;;;5094040;28;20021;-65
2023/12/02 07:30:48;;;;;;;20.02;5.82;;;-0.30;99.90;;;;;;5094167;28;20039;-64
2023/12/02 07:33:14;;;;;;;19.35;7.30;;;-0.30;99.90;;;;;;5094224;28;20042;-64
2023/12/02 07:35:39;;;;;;;19.05;7.15;;;-0.30;99.90;;;;;;5094213;28;20020;-63
2023/12/02 07:38:05;;;;;;;17.45;6.07;;;-0.30;99.90;;;;;;5094154;28;20491;-64
2023/12/02 07:40:30;;;;;;;24.75;7.45;;;-0.30;99.90;;;;;;5094201;28;20028;-65
2023/12/02 07:42:56;;;;;;;17.23;6.97;;;-0.20;99.90;;;;;;5094129;28;20505;-64
2023/12/02 07:45:22;;;;;;;21.75;7.15;;;-0.20;99.90;;;;;;5093947;28;20067;-64
2023/12/02 07:47:47;;;;;;;15.23;5.93;;;-0.10;99.90;;;;;;5103922;28;20028;-64
2023/12/02 07:50:13;;;;;;;17.88;7.20;;;-0.10;99.90;;;;;;5114269;28;20032;-63
2023/12/02 07:52:38;;;;;;;14.52;6.93;;;0.00;99.90;;;;;;5114249;28;20024;-64
2023/12/02 07:55:05;;;;;;;18.67;6.75;;;-0.10;99.90;;;;;;5113368;28;20066;-64
2023/12/02 07:57:30;;;;;;;20.08;7.57;;;-0.10;99.90;;;;;;5113394;28;20047;-64
2023/12/02 07:59:56;;;;;;;15.68;6.32;;;0.00;99.90;;;;;;5113202;28;20118;-64
2023/12/02 08:02:22;;;;;;;19.45;7.60;;;0.00;99.90;;;;;;5113294;28;20058;-63
2023/12/02 08:04:47;;;;;;;17.23;7.18;;;0.10;99.90;;;;;;5112833;28;20032;-63
2023/12/02 08:07:13;;;;;;;19.65;7.57;;;0.10;99.90;;;;;;5113916;28;20051;-64
2023/12/02 08:09:39;;;;;;;18.85;7.43;;;0.20;99.90;;;;;;5113808;28;20374;-63
2023/12/02 08:12:05;;;;;;;16.88;7.70;;;0.20;99.90;;;;;;5113779;28;20027;-64
2023/12/02 08:14:30;;;;;;;15.25;6.70;;;0.30;99.90;;;;;;5113731;28;20036;-64
2023/12/02 08:16:56;;;;;;;9.63;3.80;;;0.30;99.90;;;;;;5113694;28;20028;-63
2023/12/02 08:19:22;;;;;;;17.02;7.53;;;0.30;99.90;;;;;;5113626;28;20050;-64
2023/12/02 08:21:47;;;;;;;24.35;9.07;;;0.30;99.90;;;;;;5113623;28;20096;-64
2023/12/02 08:24:13;;;;;;;22.58;8.57;;;0.40;99.90;;;;;;5113534;28;20040;-64
2023/12/02 08:26:39;;;;;;;19.60;7.72;;;0.40;99.90;;;;;;5113218;28;20139;-64
2023/12/02 08:29:04;;;;;;;17.70;7.85;;;0.40;99.90;;;;;;5097298;28;20036;-64
2023/12/02 08:31:32;;;;;;;18.67;7.20;;;0.40;99.90;;;;;;5092929;28;20024;-64
2023/12/02 08:33:57;;;;;;;18.27;7.35;;;0.40;99.90;;;;;;5093084;28;20021;-64
2023/12/02 08:36:23;;;;;;;20.15;8.32;;;0.40;99.90;;;;;;5093073;28;20036;-64
2023/12/02 08:38:49;;;;;;;23.55;8.52;;;0.40;99.90;;;;;;5092975;28;20032;-64
2023/12/02 08:41:14;;;;;;;18.27;7.45;;;0.30;99.90;;;;;;5092937;28;20037;-64
2023/12/02 08:43:43;;;;;;;19.63;8.57;;;0.30;99.90;;;;;;5092961;28;20471;-64
2023/12/02 08:46:19;;;;;;;21.90;7.72;;;0.30;99.90;;;;;;5092799;28;20104;-64
2023/12/02 08:48:45;;;;;;;16.92;6.50;;;0.30;99.90;;;;;;5092874;28;20051;-64
2023/12/02 08:51:11;;;;;;;18.65;6.72;;;0.20;99.90;;;;;;5092898;28;20016;-64
2023/12/02 08:53:37;;;;;;;19.80;7.13;;;0.30;99.90;;;;;;5091702;28;20056;-64
2023/12/02 08:56:04;;;;;;;18.45;7.07;;;0.30;99.90;;;;;;5092713;28;20033;-64
2023/12/02 08:58:29;;;;;;;15.52;6.93;;;0.40;99.90;;;;;;5092455;28;20021;-64
2023/12/02 09:00:55;;;;;;;18.60;8.25;;;0.50;99.90;;;;;;5092693;28;20052;-64
2023/12/02 09:03:21;;;;;;;20.55;8.27;;;0.60;99.90;;;;;;5092589;28;20088;-64
2023/12/02 09:05:46;;;;;;;22.38;7.88;;;0.70;99.90;;;;;;5092555;28;20044;-64
2023/12/02 09:08:12;;;;;;;21.77;8.93;;;0.70;99.90;;;;;;5092709;28;20080;-64
2023/12/02 09:10:37;;;;;;;20.40;8.10;;;0.80;99.90;;;;;;5092495;28;20028;-64
2023/12/02 09:13:32;;;;;;;20.17;8.00;;;0.70;99.90;;;;;;5092512;28;20046;-64
2023/12/02 09:15:57;;;;;;;16.58;7.50;;;0.70;99.90;;;;;;5085013;28;20063;-64
2023/12/02 09:18:33;;;;;;;23.08;7.82;;;0.60;99.90;;;;;;5092474;28;20046;-66
2023/12/02 09:21:00;;;;;;;19.23;6.97;;;0.60;99.90;;;;;;5092355;28;20015;-64
2023/12/02 09:23:27;;;;;;;23.08;8.65;;;0.50;99.90;;;;;;5092423;28;20051;-64
2023/12/02 09:25:53;;;;;;;28.25;12.70;;;0.50;99.90;;;;;;5092168;28;20052;-65
2023/12/02 09:28:27;;;;;;;22.67;8.38;;;0.50;99.90;;;;;;5092322;28;20486;-64
2023/12/02 09:31:04;;;;;;;20.65;8.30;;;0.60;99.90;;;;;;5092231;28;20021;-65
2023/12/02 09:33:30;;;;;;;19.10;9.25;;;0.70;99.90;;;;;;5092207;28;20021;-64
2023/12/02 09:35:58;;;;;;;20.45;8.32;;;0.70;99.90;;;;;;5092407;28;20025;-64
2023/12/02 09:38:24;;;;;;;24.10;8.95;;;0.70;99.90;;;;;;5092299;28;20025;-64
2023/12/02 09:41:06;;;;;;;19.08;8.75;;;0.70;99.90;;;;;;5093322;28;20035;-64
2023/12/02 09:43:56;;;;;;;18.55;8.32;;;0.80;99.90;;;;;;5096444;28;20032;-64
2023/12/02 09:46:42;;;;;;;31.73;10.77;;;0.80;99.90;;;;;;5096250;28;20055;-64
2023/12/02 09:49:41;;;;;;;19.48;7.00;;;0.80;99.90;;;;;;5096341;28;20028;-64
2023/12/02 09:52:29;;;;;;;16.27;6.90;;;0.80;99.90;;;;;;5096259;28;20047;-64
2023/12/02 09:55:09;;;;;;;17.95;6.70;;;0.80;99.90;;;;;;5096151;28;20084;-65
2023/12/02 09:58:03;;;;;;;26.55;9.90;;;0.90;99.90;;;;;;5096010;28;20032;-64
2023/12/02 10:00:52;;;;;;;21.85;8.15;;;1.00;99.90;;;;;;5095872;28;20020;-64
2023/12/02 10:03:30;;;;;;;25.70;9.40;;;1.20;99.90;;;;;;5096041;28;20025;-64
2023/12/02 10:06:34;;;;;;;25.05;8.82;;;1.40;99.90;;;;;;5095841;28;20017;-64
2023/12/02 10:09:08;;;;;;;18.02;7.45;;;1.50;99.90;;;;;;5095844;28;20033;-65
2023/12/02 10:11:48;;;;;;;28.85;10.13;;;1.60;99.90;;;;;;5095951;28;20028;-65
2023/12/02 10:14:21;;;;;;;13.50;6.45;;;1.70;99.90;;;;;;5095888;28;20025;-64
2023/12/02 10:16:50;;;;;;;26.83;11.68;;;1.50;99.90;;;;;;5095811;28;20020;-65
2023/12/02 10:19:37;;;;;;;23.48;8.52;;;1.50;99.90;;;;;;5095669;28;20062;-65
2023/12/02 10:22:06;;;;;;;30.50;11.27;;;1.40;99.90;;;;;;5095704;28;20031;-64
2023/12/02 10:25:01;;;;;;;27.90;11.02;;;1.30;99.90;;;;;;5095443;28;20036;-64
2023/12/02 10:27:29;;;;;;;20.58;9.32;;;1.30;99.90;;;;;;5094391;28;20051;-65
2023/12/02 10:30:03;;;;;;;22.48;8.85;;;1.30;99.90;;;;;;5095362;28;20059;-65
2023/12/02 10:32:29;;;;;;;18.80;8.15;;;1.20;99.90;;;;;;5099210;28;20020;-64
2023/12/02 10:35:11;;;;;;;25.02;11.35;;;1.20;99.90;;;;;;5095472;28;20079;-63
2023/12/02 10:37:40;;;;;;;27.77;10.50;;;1.30;99.90;;;;;;5094574;28;20029;-65
2023/12/02 10:40:10;;;;;;;17.20;7.38;;;1.40;99.90;;;;;;5093078;28;20058;-64
2023/12/02 10:42:59;;;;;;;32.45;12.30;;;1.50;99.90;;;;;;5094595;28;20082;-64
2023/12/02 10:45:26;;;;;;;26.27;12.50;;;1.50;99.90;;;;;;5054992;28;20036;-65
2023/12/02 10:47:52;;;;;;;26.08;9.48;;;1.30;99.90;;;;;;5094658;28;20494;-64
2023/12/02 10:50:18;;;;;;;19.33;6.97;;;1.20;99.90;;;;;;5095101;28;20048;-65
2023/12/02 10:53:03;;;;;;;26.65;10.07;;;1.20;99.90;;;;;;5094373;28;20059;-63
2023/12/02 10:55:34;;;;;;;25.35;10.90;;;1.20;99.90;;;;;;5094991;28;20044;-64
2023/12/02 10:58:04;;;;;;;25.20;9.90;;;1.20;99.90;;;;;;5095026;28;20059;-64
2023/12/02 11:00:33;;;;;;;33.78;13.75;;;1.20;99.90;;;;;;5094776;28;20020;-63
2023/12/02 11:03:27;;;;;;;23.98;9.27;;;1.20;99.90;;;;;;5094866;28;20168;-64
2023/12/02 11:06:27;;;;;;;18.40;10.38;;;1.30;99.90;;;;;;5094817;28;20111;-64
2023/12/02 11:09:11;;;;;;;31.92;12.68;;;1.20;99.90;;;;;;5068212;28;20037;-63
2023/12/02 11:12:38;;;;;;;19.90;8.90;;;1.30;99.90;;;;;;5094748;28;20027;-63
2023/12/02 11:15:09;;;;;;;27.33;10.32;;;1.40;99.90;;;;;;5013143;28;20555;-63
2023/12/02 11:17:38;;;;;;;27.13;11.45;;;1.40;99.90;;;;;;5080601;28;20037;-65
2023/12/02 11:20:25;;;;;;;23.63;9.13;;;1.50;99.90;;;;;;5114505;28;20039;-65
2023/12/02 11:22:53;;;;;;;23.40;10.65;;;1.30;99.90;;;;;;5112772;28;20035;-65
2023/12/02 11:25:24;;;;;;;26.48;11.65;;;1.30;99.90;;;;;;5113245;28;20048;-64
2023/12/02 11:28:09;;;;;;;30.52;10.73;;;1.40;99.90;;;;;;5114672;28;20021;-65
2023/12/02 11:30:47;;;;;;;25.70;8.65;;;1.60;99.90;;;;;;5106063;28;20024;-65
2023/12/02 11:33:24;;;;;;;20.77;7.68;;;1.70;99.90;;;;;;5094359;28;20032;-64
2023/12/02 11:36:21;;;;;;;29.08;10.65;;;1.60;99.90;;;;;;5094240;28;20032;-64
2023/12/02 11:39:03;;;;;;;23.70;8.55;;;1.80;99.90;;;;;;5093152;28;20044;-64
2023/12/02 11:41:56;;;;;;;22.88;8.73;;;1.90;99.90;;;;;;5095024;28;20079;-64
2023/12/02 11:44:30;;;;;;;24.23;9.27;;;1.90;99.90;;;;;;5107898;28;20016;-64
2023/12/02 11:47:24;;;;;;;23.20;9.07;;;2.00;99.90;;;;;;5106263;28;20025;-65
2023/12/02 11:50:08;;;;;;;29.33;10.80;;;2.10;99.80;;;;;;5097186;28;20031;-63
2023/12/02 11:52:55;;;;;;;31.02;12.30;;;2.20;99.90;;;;;;5106699;28;20035;-65
2023/12/02 11:55:40;;;;;;;29.83;11.13;;;2.30;99.80;;;;;;5109133;28;20054;-64
2023/12/02 11:58:19;;;;;;;30.15;9.93;;;2.30;99.70;;;;;;5107255;28;20032;-64
2023/12/02 12:01:16;;;;;;;22.15;9.25;;;2.20;99.40;;;;;;5093630;28;20032;-64
2023/12/02 12:03:52;;;;;;;24.02;9.20;;;2.30;99.90;;;;;;5093283;28;20032;-64
2023/12/02 12:06:33;;;;;;;16.17;7.70;;;2.40;99.90;;;;;;5093272;28;20039;-64
2023/12/02 12:09:26;;;;;;;28.80;12.23;;;2.50;99.40;;;;;;5093598;28;20030;-64
2023/12/02 12:11:56;;;;;;;30.10;11.60;;;2.50;99.30;;;;;;5092499;28;20016;-64
2023/12/02 12:14:23;;;;;;;28.50;13.18;;;2.50;99.90;;;;;;5093489;28;20025;-64
2023/12/02 12:16:50;;;;;;;28.38;11.25;;;2.60;99.60;;;;;;5096483;28;20016;-64
2023/12/02 12:19:15;;;;;;;19.85;8.15;;;2.50;99.70;;;;;;5113820;28;20031;-64
2023/12/02 12:21:42;;;;;;;22.35;8.82;;;2.60;99.80;;;;;;5113628;28;20024;-64
2023/12/02 12:24:08;;;;;;;28.13;11.40;;;2.70;99.70;;;;;;5113459;28;20050;-64
2023/12/02 12:26:34;;;;;;;25.52;10.90;;;2.60;99.60;;;;;;5113458;28;20056;-64
2023/12/02 12:29:01;;;;;;;29.88;10.45;;;2.70;99.90;;;;;;5113251;28;20028;-64
2023/12/02 12:31:30;;;;;;;27.98;10.20;;;2.70;99.70;;;;;;5113577;28;20024;-65
2023/12/02 12:33:56;;;;;;;27.00;10.52;;;2.80;99.90;;;;;;5113504;28;20024;-64
2023/12/02 12:36:31;;;;;;;28.05;10.23;;;2.90;99.60;;;;;;5113508;28;20024;-64
2023/12/02 12:38:59;;;;;;;28.45;10.30;;;2.90;99.50;;;;;;5113351;28;20087;-64
2023/12/02 12:41:25;;;;;;;31.30;10.73;;;2.90;99.70;;;;;;5113453;28;20024;-64
2023/12/02 12:43:52;;;;;;;27.75;10.77;;;3.00;99.60;;;;;;5112400;28;20092;-64
2023/12/02 12:46:17;;;;;;;28.70;11.75;;;3.00;99.90;;;;;;5112276;28;20028;-64
2023/12/02 12:48:53;;;;;;;21.15;7.35;;;3.10;99.90;;;;;;5113211;28;20031;-65
2023/12/02 12:51:20;;;;;;;24.60;9.60;;;3.20;99.70;;;;;;5113172;28;20020;-64